Time;durP1;ratioP1;P1;durP2;ratioP2;P2;SDS_P1;SDS_P2;PMS_P1;PMS_P2;Temp;Humidity;BMP_temperature;BMP_pressure;BME280_temperature;BME280_humidity;BME280_pressure;Samples;Min_cycle;Max_cycle;Signal;HPM_P1;HPM_P2
2023/04/11 00:01:02;;;;;;;;;;;10.10;99.90;;;;;;5093949;28;19993;-69
2023/04/11 00:03:29;;;;;;;;;;;10.10;99.90;;;;;;5084440;28;19924;-68
2023/04/11 00:05:56;;;;;;;;;;;10.10;99.90;;;;;;5095395;28;19924;-67
2023/04/11 00:08:23;;;;;;;;;;;10.00;99.90;;;;;;5101751;28;19943;-68
2023/04/11 00:10:49;;;;;;;;;;;10.10;99.90;;;;;;5101934;28;19939;-69
2023/04/11 00:13:20;;;;;;;;;;;10.00;99.90;;;;;;5101956;28;19924;-68
2023/04/11 00:15:46;;;;;;;;;;;10.00;99.90;;;;;;5107441;28;19967;-67
2023/04/11 00:18:15;;;;;;;;;;;10.10;99.90;;;;;;5098091;28;19924;-69
2023/04/11 00:20:42;;;;;;;;;;;10.00;99.90;;;;;;5098578;28;20026;-68
2023/04/11 00:23:09;;;;;;;;;;;10.10;99.90;;;;;;5099610;28;19938;-69
2023/04/11 00:25:36;;;;;;;;;;;10.10;99.90;;;;;;5093845;28;20410;-68
2023/04/11 00:28:03;;;;;;;;;;;10.10;99.90;;;;;;5098238;28;20019;-69
2023/04/11 00:30:30;;;;;;;;;;;10.10;99.90;;;;;;5097065;28;20042;-68
2023/04/11 00:32:56;;;;;;;;;;;10.10;99.90;;;;;;5096583;28;20382;-69
2023/04/11 00:35:25;;;;;;;;;;;10.10;99.90;;;;;;5097843;28;19924;-68
2023/04/11 00:37:54;;;;;;;;;;;10.10;99.90;;;;;;5093817;28;19924;-67
2023/04/11 00:40:22;;;;;;;;;;;10.10;99.90;;;;;;5097380;28;19965;-68
2023/04/11 00:42:49;;;;;;;;;;;10.20;99.90;;;;;;5100096;28;19932;-70
2023/04/11 00:45:17;;;;;;;;;;;10.10;99.90;;;;;;5099630;28;19924;-69
2023/04/11 00:47:44;;;;;;;;;;;10.20;99.90;;;;;;5095435;28;20384;-68
2023/04/11 00:50:12;;;;;;;;;;;10.20;99.90;;;;;;5099611;28;19966;-68
2023/04/11 00:52:41;;;;;;;;;;;10.10;99.90;;;;;;5098216;28;19924;-69
2023/04/11 00:55:09;;;;;;;;;;;10.10;99.90;;;;;;5097225;28;20047;-68
2023/04/11 00:57:36;;;;;;;;;;;10.00;99.90;;;;;;5099128;28;20026;-68
2023/04/11 01:00:04;;;;;;;;;;;10.00;99.90;;;;;;5093660;28;19924;-69
2023/04/11 01:02:30;;;;;;;;;;;10.00;99.90;;;;;;5090268;28;20014;-67
2023/04/11 01:04:59;;;;;;;;;;;10.00;99.90;;;;;;5091234;28;19977;-69
2023/04/11 01:07:26;;;;;;;;;;;9.90;99.90;;;;;;5101602;28;19946;-69
2023/04/11 01:09:55;;;;;;;;;;;9.90;99.90;;;;;;5089396;28;19924;-68
2023/04/11 01:12:22;;;;;;;;;;;9.90;99.90;;;;;;5093615;28;19936;-69
2023/04/11 01:14:49;;;;;;;;;;;9.80;99.90;;;;;;5099930;28;19939;-67
2023/04/11 01:17:16;;;;;;;;;;;9.90;99.90;;;;;;5098810;28;19924;-69
2023/04/11 01:19:43;;;;;;;;;;;9.90;99.90;;;;;;5094000;28;19994;-67
2023/04/11 01:22:11;;;;;;;;;;;9.90;99.90;;;;;;5096174;28;19939;-68
2023/04/11 01:24:40;;;;;;;;;;;9.80;99.90;;;;;;5092201;28;19978;-70
2023/04/11 01:27:07;;;;;;;;;;;9.80;99.90;;;;;;5098058;28;19924;-69
2023/04/11 01:29:34;;;;;;;;;;;9.80;99.90;;;;;;5100880;28;19930;-68
2023/04/11 01:32:01;;;;;;;;;;;9.70;99.90;;;;;;5104790;28;19931;-68
2023/04/11 01:34:28;;;;;;;;;;;9.70;99.90;;;;;;5094037;28;20363;-68
2023/04/11 01:36:55;;;;;;;;;;;9.70;99.90;;;;;;5097855;28;20311;-70
2023/04/11 01:39:22;;;;;;;;;;;9.70;99.90;;;;;;5100200;28;19932;-69
2023/04/11 01:41:50;;;;;;;;;;;9.70;99.90;;;;;;5099036;28;20611;-67
2023/04/11 01:44:19;;;;;;;;;;;9.60;99.90;;;;;;5094346;28;19923;-68
2023/04/11 01:46:46;;;;;;;;;;;9.70;99.90;;;;;;5094546;28;20031;-68
2023/04/11 01:49:14;;;;;;;;;;;9.70;99.90;;;;;;5085983;28;19930;-68
2023/04/11 01:51:41;;;;;;;;;;;9.70;99.90;;;;;;5101510;28;19934;-68
2023/04/11 01:54:07;;;;;;;;;;;9.60;99.90;;;;;;5093143;28;19981;-69
2023/04/11 01:56:34;;;;;;;;;;;9.50;99.90;;;;;;5101510;28;20287;-68
2023/04/11 01:59:03;;;;;;;;;;;9.40;99.90;;;;;;5103905;28;20010;-67
2023/04/11 02:01:30;;;;;;;;;;;9.40;99.90;;;;;;5100914;28;20310;-68
2023/04/11 02:03:57;;;;;;;;;;;9.30;99.90;;;;;;5103433;28;19930;-68
2023/04/11 02:06:26;;;;;;;;;;;9.20;99.90;;;;;;5097539;28;19924;-69
2023/04/11 02:08:53;;;;;;;;;;;9.20;99.90;;;;;;5100259;28;19927;-68
2023/04/11 02:11:21;;;;;;;;;;;9.20;99.90;;;;;;5095216;28;19924;-68
2023/04/11 02:13:50;;;;;;;;;;;9.10;99.90;;;;;;5105783;28;19931;-69
2023/04/11 02:16:19;;;;;;;;;;;9.00;99.90;;;;;;5096469;28;19959;-69
2023/04/11 02:18:46;;;;;;;;;;;9.00;99.90;;;;;;5093070;28;19924;-68
2023/04/11 02:21:13;;;;;;;;;;;9.10;99.90;;;;;;5101080;28;19928;-68
2023/04/11 02:23:39;;;;;;;;;;;9.00;99.90;;;;;;5098210;28;19931;-69
2023/04/11 02:26:06;;;;;;;;;;;9.00;99.90;;;;;;5097797;28;19946;-69
2023/04/11 02:28:33;;;;;;;;;;;9.00;99.90;;;;;;5106090;28;19932;-69
2023/04/11 02:31:00;;;;;;;;;;;8.90;99.90;;;;;;5098193;28;19931;-69
2023/04/11 02:33:28;;;;;;;;;;;8.80;99.90;;;;;;5097723;28;19930;-69
2023/04/11 02:35:55;;;;;;;;;;;8.80;99.90;;;;;;5100743;28;19932;-66
2023/04/11 02:38:22;;;;;;;;;;;8.80;99.90;;;;;;5097460;28;19928;-69
2023/04/11 02:40:48;;;;;;;;;;;8.80;99.90;;;;;;5098721;28;19924;-67
2023/04/11 02:43:15;;;;;;;;;;;8.80;99.90;;;;;;5094781;28;19988;-68
2023/04/11 02:45:42;;;;;;;;;;;8.70;99.90;;;;;;5099449;28;20391;-68
2023/04/11 02:48:11;;;;;;;;;;;8.70;99.90;;;;;;5090685;28;19935;-68
2023/04/11 02:50:44;;;;;;;;;;;8.70;99.90;;;;;;5089257;28;19928;-68
2023/04/11 02:53:11;;;;;;;;;;;8.70;99.90;;;;;;5096968;28;19970;-68
2023/04/11 02:55:45;;;;;;;;;;;8.70;99.90;;;;;;5100410;28;20401;-68
2023/04/11 02:58:16;;;;;;;;;;;8.80;99.90;;;;;;5097303;28;19967;-69
2023/04/11 03:00:44;;;;;;;;;;;8.70;99.90;;;;;;5098648;28;19935;-69
2023/04/11 03:03:12;;;;;;;;;;;8.70;99.90;;;;;;5096601;28;20423;-68
2023/04/11 03:05:42;;;;;;;;;;;8.80;99.90;;;;;;5101572;28;19941;-69
2023/04/11 03:08:11;;;;;;;;;;;8.80;99.90;;;;;;5100741;28;19923;-69
2023/04/11 03:10:42;;;;;;;;;;;8.80;99.90;;;;;;5093890;28;20019;-70
2023/04/11 03:13:11;;;;;;;;;;;8.80;99.90;;;;;;5103317;28;19928;-68
2023/04/11 03:15:38;;;;;;;;;;;8.80;99.90;;;;;;5102309;28;20386;-69
2023/04/11 03:18:08;;;;;;;;;;;8.90;99.90;;;;;;5098558;27;19924;-68
2023/04/11 03:20:37;;;;;;;;;;;8.90;99.90;;;;;;5105432;28;19931;-67
2023/04/11 03:23:05;;;;;;;;;;;8.90;99.90;;;;;;5096374;28;19927;-69
2023/04/11 03:25:33;;;;;;;;;;;9.00;99.90;;;;;;5096538;28;19970;-65
2023/04/11 03:28:03;;;;;;;;;;;8.90;99.90;;;;;;5097901;28;20031;-68
2023/04/11 03:30:30;;;;;;;;;;;8.80;99.90;;;;;;5096347;28;19924;-67
2023/04/11 03:32:59;;;;;;;;;;;8.80;99.90;;;;;;5099219;28;19924;-69
2023/04/11 03:35:27;;;;;;;;;;;8.80;99.90;;;;;;5099069;28;19960;-68
2023/04/11 03:37:53;;;;;;;;;;;8.80;99.90;;;;;;5100428;28;20010;-68
2023/04/11 03:40:21;;;;;;;;;;;8.80;99.90;;;;;;5090009;28;19924;-69
2023/04/11 03:43:00;;;;;;;;;;;8.80;99.90;;;;;;5097870;28;19969;-67
2023/04/11 03:45:30;;;;;;;;;;;8.80;99.90;;;;;;5098963;28;19924;-69
2023/04/11 03:48:00;;;;;;;;;;;8.80;99.90;;;;;;5100171;28;19924;-69
2023/04/11 03:50:36;;;;;;;;;;;8.80;99.90;;;;;;5097336;28;20280;-68
2023/04/11 03:53:04;;;;;;;;;;;8.80;99.90;;;;;;5102132;28;20375;-68
2023/04/11 03:55:31;;;;;;;;;;;8.80;99.90;;;;;;5100056;28;20470;-67
2023/04/11 03:58:01;;;;;;;;;;;8.90;99.90;;;;;;5097998;28;19977;-66
2023/04/11 04:00:29;;;;;;;;;;;8.90;99.90;;;;;;5105771;28;19974;-69
2023/04/11 04:03:03;;;;;;;;;;;8.90;99.90;;;;;;5095063;28;19931;-67
2023/04/11 04:05:31;;;;;;;;;;;8.90;99.90;;;;;;5097786;28;19924;-65
2023/04/11 04:07:58;;;;;;;;;;;8.90;99.90;;;;;;5097812;28;19924;-69
2023/04/11 04:10:37;;;;;;;;;;;8.80;99.90;;;;;;5098776;28;19970;-66
2023/04/11 04:13:06;;;;;;;;;;;8.80;99.90;;;;;;5102244;28;19924;-68
2023/04/11 04:15:40;;;;;;;;;;;8.90;99.90;;;;;;5102129;28;19931;-66
2023/04/11 04:18:08;;;;;;;;;;;8.90;99.90;;;;;;5096460;28;20398;-68
2023/04/11 04:20:43;;;;;;;;;;;8.90;99.90;;;;;;5095770;28;19977;-69
2023/04/11 04:23:13;;;;;;;;;;;8.80;99.90;;;;;;5094763;28;19936;-68
2023/04/11 04:26:15;;;;;;;;;;;8.80;99.90;;;;;;5040292;28;20343;-68
2023/04/11 04:28:49;;;;;;;;;;;8.90;99.90;;;;;;5089606;28;19931;-68
2023/04/11 04:31:24;;;;;;;;;;;8.80;99.90;;;;;;5099656;28;19931;-68
2023/04/11 04:33:57;;;;;;;;;;;8.80;99.90;;;;;;5093410;28;19933;-67
2023/04/11 04:36:25;;;;;;;;;;;8.80;99.90;;;;;;5095228;28;19928;-70
2023/04/11 04:38:55;;;;;;;;;;;8.80;99.90;;;;;;5095858;28;19924;-69
2023/04/11 04:41:23;;;;;;;;;;;8.80;99.90;;;;;;5101624;28;19986;-66
2023/04/11 04:44:03;;;;;;;;;;;8.80;99.90;;;;;;5097963;28;19935;-66
2023/04/11 04:46:38;;;;;;;;;;;8.80;99.90;;;;;;5105315;28;19932;-69
2023/04/11 04:49:06;;;;;;;;;;;8.80;99.90;;;;;;5092848;28;19931;-68
2023/04/11 04:51:35;;;;;;;;;;;8.80;99.90;;;;;;5100470;28;19984;-66
2023/04/11 04:54:03;;;;;;;;;;;8.80;99.90;;;;;;5098179;28;19924;-68
2023/04/11 04:56:30;;;;;;;;;;;8.80;99.90;;;;;;5097808;28;19930;-69
2023/04/11 04:59:00;;;;;;;;;;;8.80;99.90;;;;;;5104905;28;19973;-68
2023/04/11 05:01:31;;;;;;;;;;;8.80;99.90;;;;;;5092265;28;19928;-67
2023/04/11 05:04:00;;;;;;;;;;;8.80;99.90;;;;;;5087866;28;19974;-68
2023/04/11 05:06:47;;;;;;;;;;;8.70;99.90;;;;;;5100005;28;19928;-68
2023/04/11 05:09:15;;;;;;;;;;;8.60;99.90;;;;;;5099747;28;19973;-68
2023/04/11 05:11:42;;;;;;;;;;;8.60;99.90;;;;;;5096746;28;19924;-68
2023/04/11 05:14:11;;;;;;;;;;;8.50;99.90;;;;;;5092858;28;19924;-68
2023/04/11 05:16:38;;;;;;;;;;;8.50;99.90;;;;;;5095158;28;19924;-68
2023/04/11 05:19:05;;;;;;;;;;;8.50;99.90;;;;;;5097543;28;19927;-69
2023/04/11 05:21:35;;;;;;;;;;;8.50;99.90;;;;;;5094676;28;19924;-68
2023/04/11 05:24:01;;;;;;;;;;;8.60;99.90;;;;;;5099899;28;20014;-67
2023/04/11 05:26:33;;;;;;;;;;;8.60;99.90;;;;;;5091225;28;19924;-69
2023/04/11 05:29:01;;;;;;;;;;;8.60;99.90;;;;;;5098065;28;19927;-69
2023/04/11 05:31:30;;;;;;;;;;;8.60;99.90;;;;;;5110342;28;19923;-69
2023/04/11 05:33:57;;;;;;;;;;;8.70;99.90;;;;;;5106394;28;20404;-68
2023/04/11 05:36:28;;;;;;;;;;;8.70;99.90;;;;;;5106526;28;19924;-67
2023/04/11 05:38:55;;;;;;;;;;;8.70;99.90;;;;;;5097159;28;19928;-69
2023/04/11 05:41:21;;;;;;;;;;;8.70;99.90;;;;;;5105215;28;19930;-67
2023/04/11 05:43:48;;;;;;;;;;;8.80;99.90;;;;;;5100865;28;19924;-68
2023/04/11 05:46:15;;;;;;;;;;;8.80;99.90;;;;;;5104850;28;19932;-68
2023/04/11 05:48:43;;;;;;;;;;;8.80;99.90;;;;;;5100822;28;19924;-69
2023/04/11 05:51:10;;;;;;;;;;;8.80;99.90;;;;;;5101291;28;19924;-69
2023/04/11 05:53:37;;;;;;;;;;;8.80;99.90;;;;;;5103852;28;19924;-68
2023/04/11 05:56:04;;;;;;;;;;;8.80;99.90;;;;;;5102923;28;20310;-68
2023/04/11 05:58:30;;;;;;;;;;;8.80;99.90;;;;;;5105520;28;19968;-67
2023/04/11 06:00:58;;;;;;;;;;;8.80;99.90;;;;;;5103828;28;20299;-68
2023/04/11 06:03:25;;;;;;;;;;;8.80;99.90;;;;;;5096911;28;19931;-68
2023/04/11 06:05:53;;;;;;;;;;;8.80;99.90;;;;;;5108414;28;19924;-68
2023/04/11 06:08:21;;;;;;;;;;;8.80;99.90;;;;;;5096768;28;19963;-68
2023/04/11 06:10:47;;;;;;;;;;;8.80;99.90;;;;;;5104399;28;19956;-67
2023/04/11 06:13:14;;;;;;;;;;;8.90;99.90;;;;;;5099959;28;19924;-68
2023/04/11 06:15:41;;;;;;;;;;;8.80;99.90;;;;;;5103395;28;19924;-67
2023/04/11 06:18:08;;;;;;;;;;;8.80;99.90;;;;;;5107319;28;20410;-68
2023/04/11 06:20:35;;;;;;;;;;;8.90;99.90;;;;;;5100612;28;19924;-70
2023/04/11 06:23:03;;;;;;;;;;;8.90;99.90;;;;;;5103643;28;19927;-69
2023/04/11 06:25:30;;;;;;;;;;;8.90;99.90;;;;;;5093457;28;19931;-68
2023/04/11 06:27:56;;;;;;;;;;;8.90;99.90;;;;;;5107388;28;19931;-68
2023/04/11 06:30:23;;;;;;;;;;;8.80;99.90;;;;;;5098484;28;19932;-68
2023/04/11 06:32:51;;;;;;;;;;;8.70;99.90;;;;;;5103057;28;19924;-68
2023/04/11 06:35:19;;;;;;;;;;;8.70;99.90;;;;;;5099553;28;19931;-68
2023/04/11 06:37:46;;;;;;;;;;;8.80;99.90;;;;;;5102785;28;20336;-70
2023/04/11 06:40:16;;;;;;;;;;;8.90;99.90;;;;;;5097215;28;19928;-68
2023/04/11 06:42:42;;;;;;;;;;;9.00;99.90;;;;;;5099575;28;19924;-68
2023/04/11 06:45:10;;;;;;;;;;;9.00;99.90;;;;;;5100744;28;19930;-69
2023/04/11 06:47:37;;;;;;;;;;;9.00;99.90;;;;;;5096498;28;19924;-66
2023/04/11 06:50:04;;;;;;;;;;;9.00;99.90;;;;;;5104701;28;19924;-70
2023/04/11 06:52:31;;;;;;;;;;;9.00;99.90;;;;;;5103007;28;19931;-68
2023/04/11 06:54:58;;;;;;;;;;;9.00;99.90;;;;;;5100248;28;19924;-68
2023/04/11 06:57:26;;;;;;;;;;;8.90;99.90;;;;;;5099059;28;19978;-68
2023/04/11 06:59:53;;;;;;;;;;;9.10;99.90;;;;;;5103186;28;19927;-69
2023/04/11 07:02:20;;;;;;;;;;;9.20;99.90;;;;;;5102347;28;19924;-68
2023/04/11 07:04:47;;;;;;;;;;;9.20;99.90;;;;;;5100100;28;19928;-69
2023/04/11 07:07:14;;;;;;;;;;;9.30;99.90;;;;;;5100636;28;19928;-67
2023/04/11 07:09:42;;;;;;;;;;;9.20;99.90;;;;;;5100362;28;19928;-70
2023/04/11 07:12:09;;;;;;;;;;;9.30;99.90;;;;;;5103754;28;19946;-68
2023/04/11 07:14:37;;;;;;;;;;;9.50;99.90;;;;;;5101427;28;19931;-69
2023/04/11 07:17:04;;;;;;;;;;;9.30;99.90;;;;;;5104888;28;19985;-69
2023/04/11 07:19:30;;;;;;;;;;;9.40;99.90;;;;;;5099188;28;19977;-69
2023/04/11 07:21:57;;;;;;;;;;;9.50;99.90;;;;;;5097919;28;19928;-69
2023/04/11 07:24:24;;;;;;;;;;;9.60;99.90;;;;;;5100612;28;19924;-68
2023/04/11 07:26:52;;;;;;;;;;;9.60;99.90;;;;;;5100026;28;20375;-67
2023/04/11 07:29:19;;;;;;;;;;;9.70;99.90;;;;;;5107172;28;20352;-69
2023/04/11 07:31:48;;;;;;;;;;;9.80;99.90;;;;;;5101090;28;19928;-68
2023/04/11 07:34:15;;;;;;;;;;;9.90;99.90;;;;;;5104582;28;19930;-67
2023/04/11 07:36:41;;;;;;;;;;;9.90;99.90;;;;;;5100725;28;19924;-67
2023/04/11 07:39:12;;;;;;;;;;;9.90;99.90;;;;;;5102179;28;20352;-69
2023/04/11 07:41:39;;;;;;;;;;;9.90;99.90;;;;;;5105611;28;19959;-68
2023/04/11 07:44:06;;;;;;;;;;;10.10;99.90;;;;;;5100946;28;19924;-69
2023/04/11 07:46:33;;;;;;;;;;;10.20;99.90;;;;;;5104047;28;19972;-68
2023/04/11 07:49:01;;;;;;;;;;;10.30;99.90;;;;;;5101281;28;19928;-69
2023/04/11 07:51:28;;;;;;;;;;;10.40;99.90;;;;;;5104380;28;19932;-68
2023/04/11 07:53:55;;;;;;;;;;;10.30;99.90;;;;;;5095460;28;19990;-68
2023/04/11 07:56:21;;;;;;;;;;;10.20;99.90;;;;;;5097677;28;19924;-68
2023/04/11 07:58:48;;;;;;;;;;;10.20;99.90;;;;;;5109074;28;19924;-69
2023/04/11 08:01:22;;;;;;;;;;;10.10;99.90;;;;;;5100434;28;20007;-68
2023/04/11 08:03:49;;;;;;;;;;;10.20;99.90;;;;;;5098319;28;19924;-67
2023/04/11 08:06:17;;;;;;;;;;;10.30;99.90;;;;;;5101526;28;19924;-69
2023/04/11 08:08:44;;;;;;;;;;;10.30;99.90;;;;;;5101607;28;20297;-69
2023/04/11 08:11:11;;;;;;;;;;;10.40;99.90;;;;;;5105482;28;19959;-68
2023/04/11 08:13:38;;;;;;;;;;;10.60;99.90;;;;;;5101596;28;19928;-69
2023/04/11 08:16:08;;;;;;;;;;;10.80;99.90;;;;;;5110007;28;19924;-69
2023/04/11 08:18:35;;;;;;;;;;;10.70;99.90;;;;;;5096453;28;19967;-68
2023/04/11 08:21:01;;;;;;;;;;;10.60;99.90;;;;;;5099518;28;19924;-68
2023/04/11 08:23:30;;;;;;;;;;;10.70;99.90;;;;;;5096658;28;19923;-68
2023/04/11 08:25:57;;;;;;;;;;;10.70;99.90;;;;;;5102939;28;19932;-68
2023/04/11 08:28:24;;;;;;;;;;;10.90;99.90;;;;;;5098567;28;19931;-66
2023/04/11 08:30:54;;;;;;;;;;;11.10;99.90;;;;;;5097501;28;20019;-69
2023/04/11 08:33:23;;;;;;;;;;;11.20;99.90;;;;;;5105074;28;19924;-67
2023/04/11 08:35:50;;;;;;;;;;;11.20;99.90;;;;;;5101341;28;19927;-69
2023/04/11 08:38:16;;;;;;;;;;;11.30;99.90;;;;;;5098237;28;19923;-68
2023/04/11 08:40:45;;;;;;;;;;;11.10;99.90;;;;;;5100600;28;19927;-70
2023/04/11 08:43:11;;;;;;;;;;;10.90;99.90;;;;;;5102325;28;19927;-69
2023/04/11 08:45:38;;;;;;;;;;;10.80;99.90;;;;;;5102140;28;20022;-68
2023/04/11 08:48:06;;;;;;;;;;;10.80;99.90;;;;;;5100798;28;19923;-66
2023/04/11 08:50:33;;;;;;;;;;;10.90;99.90;;;;;;5101592;28;19967;-69
2023/04/11 08:53:01;;;;;;;;;;;11.00;99.90;;;;;;5097088;28;19974;-69
2023/04/11 08:55:28;;;;;;;;;;;10.90;99.90;;;;;;5098245;28;19973;-69
2023/04/11 08:57:58;;;;;;;;;;;10.80;99.90;;;;;;5098846;28;19927;-69
2023/04/11 09:00:27;;;;;;;;;;;10.90;99.90;;;;;;5103274;28;20469;-69
2023/04/11 09:02:55;;;;;;;;;;;10.90;99.90;;;;;;5094747;28;19987;-69
2023/04/11 09:05:26;;;;;;;;;;;11.00;99.90;;;;;;5103631;28;19988;-68
2023/04/11 09:07:53;;;;;;;;;;;11.20;99.90;;;;;;5102132;28;19956;-69
2023/04/11 09:10:21;;;;;;;;;;;11.30;99.90;;;;;;5103435;28;19924;-69
2023/04/11 09:12:48;;;;;;;;;;;11.60;99.90;;;;;;5102237;28;19928;-68
2023/04/11 09:15:20;;;;;;;;;;;11.70;99.90;;;;;;5101246;28;19990;-69
2023/04/11 09:17:48;;;;;;;;;;;11.70;99.90;;;;;;5107165;28;19924;-69
2023/04/11 09:20:15;;;;;;;;;;;11.80;99.90;;;;;;5096663;28;20412;-68
2023/04/11 09:22:42;;;;;;;;;;;12.00;99.90;;;;;;5107274;28;19928;-67
2023/04/11 09:25:09;;;;;;;;;;;12.10;99.90;;;;;;5101873;28;19924;-70
2023/04/11 09:27:36;;;;;;;;;;;12.20;99.90;;;;;;5103313;28;20379;-69
2023/04/11 09:30:04;;;;;;;;;;;11.90;99.90;;;;;;5106896;28;19932;-69
2023/04/11 09:32:33;;;;;;;;;;;11.80;99.90;;;;;;5107125;28;19959;-66
2023/04/11 09:35:10;;;;;;;;;;;11.60;99.90;;;;;;5106830;28;19963;-68
2023/04/11 09:37:45;;;;;;;;;;;11.50;99.90;;;;;;5100713;28;19924;-69
2023/04/11 09:40:13;;;;;;;;;;;11.80;99.90;;;;;;5110886;28;19970;-69
2023/04/11 09:42:41;;;;;;;;;;;11.90;99.90;;;;;;5098277;28;20348;-68
2023/04/11 09:45:15;;;;;;;;;;;11.80;99.90;;;;;;5108582;28;19924;-68
2023/04/11 09:47:43;;;;;;;;;;;11.80;99.90;;;;;;5101550;28;19935;-70
2023/04/11 09:50:11;;;;;;;;;;;11.80;99.90;;;;;;5103721;28;19977;-69
2023/04/11 09:52:39;;;;;;;;;;;12.10;99.90;;;;;;5102845;28;19924;-70
2023/04/11 09:55:07;;;;;;;;;;;12.40;99.90;;;;;;5100910;28;19923;-67
2023/04/11 09:57:35;;;;;;;;;;;12.40;99.90;;;;;;5098529;28;20018;-68
2023/04/11 10:00:11;;;;;;;;;;;12.10;99.90;;;;;;5107886;28;19924;-69
2023/04/11 10:02:39;;;;;;;;;;;12.00;99.90;;;;;;5105469;28;19924;-69
2023/04/11 10:05:09;;;;;;;;;;;12.20;99.90;;;;;;5100072;28;19923;-67
2023/04/11 10:07:44;;;;;;;;;;;12.10;99.90;;;;;;5105896;28;20437;-68
2023/04/11 10:10:15;;;;;;;;;;;12.10;99.90;;;;;;5104135;28;19927;-70
2023/04/11 10:12:42;;;;;;;;;;;12.40;99.90;;;;;;5101339;28;20318;-68
2023/04/11 10:15:09;;;;;;;;;;;12.50;99.90;;;;;;5093611;28;19928;-68
2023/04/11 10:17:36;;;;;;;;;;;12.40;99.90;;;;;;5106860;28;19932;-68
2023/04/11 10:20:23;;;;;;;;;;;12.50;99.90;;;;;;5100520;28;19924;-68
2023/04/11 10:23:00;;;;;;;;;;;12.30;99.90;;;;;;5107687;28;19985;-66
2023/04/11 10:25:28;;;;;;;;;;;12.20;99.90;;;;;;5094312;28;19925;-68
2023/04/11 10:27:59;;;;;;;;;;;12.10;99.90;;;;;;5102254;28;19924;-68
2023/04/11 10:30:44;;;;;;;;;;;12.20;99.90;;;;;;5093943;28;19925;-68
2023/04/11 10:33:12;;;;;;;;;;;12.30;99.90;;;;;;5099510;28;19923;-68
2023/04/11 10:35:53;;;;;;;;;;;12.50;99.90;;;;;;5098877;28;19928;-69
2023/04/11 10:38:38;;;;;;;;;;;12.80;99.90;;;;;;5094106;28;19930;-68
2023/04/11 10:41:16;;;;;;;;;;;13.00;99.90;;;;;;5085937;28;19928;-70
2023/04/11 10:43:43;;;;;;;;;;;13.00;99.90;;;;;;5101657;28;19957;-67
2023/04/11 10:46:20;;;;;;;;;;;12.90;99.90;;;;;;5106529;28;19931;-68
2023/04/11 10:48:56;;;;;;;;;;;13.10;99.90;;;;;;5102803;28;19924;-68
2023/04/11 10:51:24;;;;;;;;;;;13.50;99.90;;;;;;5109173;28;19966;-68
2023/04/11 10:53:52;;;;;;;;;;;13.50;99.90;;;;;;5099057;28;20399;-67
2023/04/11 10:56:34;;;;;;;;;;;13.80;99.90;;;;;;5092327;28;20030;-68
2023/04/11 10:59:02;;;;;;;;;;;13.60;99.90;;;;;;5095827;28;20380;-69
2023/04/11 11:01:29;;;;;;;;;;;13.50;99.90;;;;;;5101238;28;19928;-68
2023/04/11 11:03:56;;;;;;;;;;;13.40;99.90;;;;;;5096771;28;19951;-71
2023/04/11 11:06:24;;;;;;;;;;;13.50;99.90;;;;;;5103463;28;20359;-67
2023/04/11 11:08:51;;;;;;;;;;;13.50;99.90;;;;;;5095815;28;19976;-75
2023/04/11 11:11:19;;;;;;;;;;;13.70;99.90;;;;;;5099748;28;19951;-69
2023/04/11 11:13:48;;;;;;;;;;;13.90;99.90;;;;;;5095299;28;19924;-68
2023/04/11 11:16:16;;;;;;;;;;;14.00;99.90;;;;;;5084297;28;19928;-72
2023/04/11 11:18:47;;;;;;;;;;;13.80;99.90;;;;;;5096106;28;19924;-68
2023/04/11 11:21:15;;;;;;;;;;;13.80;99.90;;;;;;5098896;28;19930;-67
2023/04/11 11:23:55;;;;;;;;;;;13.70;99.90;;;;;;5096982;28;20363;-69
2023/04/11 11:26:23;;;;;;;;;;;13.50;99.90;;;;;;5095755;28;19931;-71
2023/04/11 11:28:50;;;;;;;;;;;13.80;99.90;;;;;;5090410;28;20449;-70
2023/04/11 11:31:18;;;;;;;;;;;16.50;99.90;;;;;;5099872;28;19923;-70
2023/04/11 11:33:45;;;;;;;;;;;17.60;99.90;;;;;;5100207;28;19928;-70
2023/04/11 11:36:13;;;;;;;;;;;17.10;99.90;;;;;;5102791;28;19927;-69
2023/04/11 11:38:40;;;;;;;;;;;18.80;99.90;;;;;;5095737;28;20288;-69
2023/04/11 11:41:07;;;;;;;;;;;20.20;99.90;;;;;;5099852;28;19924;-69
2023/04/11 11:43:37;;;;;;;;;;;20.80;99.90;;;;;;5095351;28;19931;-81
2023/04/11 11:46:08;;;;;;;;;;;17.50;99.90;;;;;;5089648;28;20034;-69
2023/04/11 11:48:37;;;;;;;;;;;18.70;99.90;;;;;;5094734;28;20572;-67
2023/04/11 11:51:04;;;;;;;;;;;19.30;99.90;;;;;;5096581;28;19924;-68
2023/04/11 11:53:31;;;;;;;;;;;21.00;99.90;;;;;;5090468;28;20395;-68
2023/04/11 11:55:58;;;;;;;;;;;20.40;99.90;;;;;;5092950;28;19924;-69
2023/04/11 11:58:25;;;;;;;;;;;19.50;99.90;;;;;;5090254;28;19924;-69
2023/04/11 12:00:52;;;;;;;;;;;20.80;99.90;;;;;;5090352;28;20321;-69
2023/04/11 12:03:21;;;;;;;;;;;20.30;99.90;;;;;;5087923;28;19924;-80
2023/04/11 12:05:50;;;;;;;;;;;20.50;99.90;;;;;;5084893;28;19924;-67
2023/04/11 12:08:18;;;;;;;;;;;20.50;99.90;;;;;;5084797;28;19924;-66
2023/04/11 12:10:46;;;;;;;;;;;20.20;99.90;;;;;;5095986;28;19924;-67
2023/04/11 12:13:13;;;;;;;;;;;20.20;99.90;;;;;;5083559;28;19936;-67
2023/04/11 12:15:41;;;;;;;;;;;17.50;99.90;;;;;;5101970;28;19927;-66
2023/04/11 12:18:08;;;;;;;;;;;18.80;99.90;;;;;;5091116;28;20483;-66
2023/04/11 12:20:35;;;;;;;;;;;19.80;99.90;;;;;;5078937;28;19939;-67
2023/04/11 12:23:03;;;;;;;;;;;20.60;99.90;;;;;;5101480;28;20291;-69
2023/04/11 12:25:30;;;;;;;;;;;19.90;99.90;;;;;;5094193;28;19928;-68
2023/04/11 12:27:57;;;;;;;;;;;20.10;99.90;;;;;;5091981;28;19942;-68
2023/04/11 12:30:24;;;;;;;;;;;20.90;99.90;;;;;;5077950;28;19924;-68
2023/04/11 12:32:51;;;;;;;;;;;19.80;99.90;;;;;;5099902;28;19931;-67
2023/04/11 12:35:17;;;;;;;;;;;20.20;99.90;;;;;;5100570;28;19925;-67
2023/04/11 12:37:44;;;;;;;;;;;20.30;99.90;;;;;;5098637;28;19932;-69
2023/04/11 12:40:14;;;;;;;;;;;19.30;99.90;;;;;;5089998;28;20019;-67
2023/04/11 12:42:41;;;;;;;;;;;18.00;99.90;;;;;;5081490;28;19933;-67
2023/04/11 12:45:08;;;;;;;;;;;16.80;99.90;;;;;;5099228;28;19923;-68
2023/04/11 12:47:35;;;;;;;;;;;17.20;99.90;;;;;;5095183;28;19924;-67
2023/04/11 12:50:05;;;;;;;;;;;16.60;99.90;;;;;;5092139;28;21295;-67
2023/04/11 12:52:32;;;;;;;;;;;15.40;99.90;;;;;;5084910;28;19925;-67
2023/04/11 12:54:58;;;;;;;;;;;14.20;99.90;;;;;;5084222;28;19924;-67
2023/04/11 12:57:27;;;;;;;;;;;13.80;99.90;;;;;;5103555;28;20298;-72
2023/04/11 12:59:53;;;;;;;;;;;13.30;99.90;;;;;;5104090;28;19924;-67
2023/04/11 13:02:20;;;;;;;;;;;12.60;99.90;;;;;;5093830;28;19928;-67
2023/04/11 13:04:47;;;;;;;;;;;12.00;99.90;;;;;;5089231;28;19924;-67
2023/04/11 13:07:14;;;;;;;;;;;11.90;99.90;;;;;;5090049;28;19925;-66
2023/04/11 13:09:41;;;;;;;;;;;13.40;99.90;;;;;;5086961;28;19974;-69
2023/04/11 13:12:08;;;;;;;;;;;14.40;99.90;;;;;;5087469;28;19924;-67
2023/04/11 13:14:36;;;;;;;;;;;15.30;99.90;;;;;;5088379;28;19931;-66
2023/04/11 13:17:03;;;;;;;;;;;16.80;99.90;;;;;;5092356;28;20286;-68
2023/04/11 13:19:30;;;;;;;;;;;17.80;99.90;;;;;;5101548;28;19930;-66
2023/04/11 13:21:57;;;;;;;;;;;18.40;99.90;;;;;;5087542;28;20032;-66
2023/04/11 13:24:24;;;;;;;;;;;18.40;99.90;;;;;;5083977;28;19931;-68
2023/04/11 13:26:51;;;;;;;;;;;18.20;99.90;;;;;;5092502;28;19928;-68
2023/04/11 13:29:18;;;;;;;;;;;18.90;99.90;;;;;;5086660;28;19924;-68
2023/04/11 13:31:46;;;;;;;;;;;18.70;99.90;;;;;;5091721;28;19924;-69
2023/04/11 13:34:13;;;;;;;;;;;19.90;99.90;;;;;;5084053;28;19935;-68
2023/04/11 13:36:40;;;;;;;;;;;19.40;99.90;;;;;;5097237;28;19923;-68
2023/04/11 13:39:07;;;;;;;;;;;19.90;99.90;;;;;;5085615;28;20325;-69
2023/04/11 13:41:34;;;;;;;;;;;20.20;99.90;;;;;;5090563;28;19925;-67
2023/04/11 13:44:00;;;;;;;;;;;20.30;99.90;;;;;;5084189;28;20360;-69
2023/04/11 13:46:27;;;;;;;;;;;18.60;99.90;;;;;;5088969;28;19924;-67
2023/04/11 13:48:55;;;;;;;;;;;17.20;99.90;;;;;;5087978;28;19929;-68
2023/04/11 13:51:22;;;;;;;;;;;17.10;99.90;;;;;;5091676;28;20317;-68
2023/04/11 13:53:49;;;;;;;;;;;17.80;99.90;;;;;;5092657;28;19939;-69
2023/04/11 13:56:16;;;;;;;;;;;19.00;99.90;;;;;;5085102;28;19925;-67
2023/04/11 13:58:43;;;;;;;;;;;20.30;99.90;;;;;;5083919;28;19924;-68
2023/04/11 14:01:10;;;;;;;;;;;20.60;99.90;;;;;;5085821;28;19929;-70
2023/04/11 14:03:36;;;;;;;;;;;21.00;99.90;;;;;;5079217;28;19925;-66
2023/04/11 14:06:07;;;;;;;;;;;21.40;99.90;;;;;;5098477;28;19972;-68
2023/04/11 14:08:35;;;;;;;;;;;21.20;99.90;;;;;;5081125;28;20015;-70
2023/04/11 14:11:02;;;;;;;;;;;21.00;99.90;;;;;;5097038;28;19985;-68
2023/04/11 14:13:28;;;;;;;;;;;19.80;99.90;;;;;;5091677;28;19924;-68
2023/04/11 14:15:55;;;;;;;;;;;18.80;99.90;;;;;;5107151;28;19924;-69
2023/04/11 14:18:22;;;;;;;;;;;17.40;99.90;;;;;;5085497;28;19931;-68
2023/04/11 14:20:49;;;;;;;;;;;16.60;99.90;;;;;;5080894;28;19936;-68
2023/04/11 14:23:17;;;;;;;;;;;16.30;99.90;;;;;;5093499;28;19931;-66
2023/04/11 14:25:44;;;;;;;;;;;16.00;99.90;;;;;;5089901;28;19925;-68
2023/04/11 14:28:12;;;;;;;;;;;16.60;99.90;;;;;;5090100;28;19928;-67
2023/04/11 14:30:40;;;;;;;;;;;16.20;99.90;;;;;;5083821;28;20050;-70